Time,TemperatureF,DewpointF,PressureIn,WindDirection,WindDirectionDegrees,WindSpeedMPH,WindSpeedGustMPH,Humidity,HourlyPrecipIn,Conditions,Clouds,dailyrainin,SoftwareType,DateUTC
2013-11-10 00:22:00,53.0,50.0,30.24,NE,51,3.0,5.0,91,0.00,,,0.11,,2013-11-10 06:22:00,
2013-11-10 00:42:00,53.0,50.0,30.24,NE,51,1.0,3.0,90,0.00,,,0.11,,2013-11-10 06:42:00,
2013-11-10 00:52:00,53.0,50.0,30.24,NE,51,1.0,2.0,90,0.00,,,0.11,,2013-11-10 06:52:00,
2013-11-10 01:12:00,53.0,50.0,30.23,NE,52,2.0,4.0,91,0.00,,,0.11,,2013-11-10 07:12:00,
2013-11-10 01:22:00,52.0,49.0,30.24,NE,53,0.0,3.0,91,0.00,,,0.11,,2013-11-10 07:22:00,
2013-11-10 01:42:00,53.0,50.0,30.24,NE,45,2.0,4.0,90,0.00,,,0.11,,2013-11-10 07:42:00,
2013-11-10 01:52:00,53.0,50.0,30.24,NE,43,3.0,6.0,88,0.00,,,0.11,,2013-11-10 07:52:00,
2013-11-10 02:12:00,53.0,50.0,30.25,NE,44,1.0,3.0,88,0.00,,,0.11,,2013-11-10 08:12:00,
2013-11-10 02:21:00,53.0,50.0,30.25,NNW,339,1.0,3.0,91,0.00,,,0.11,,2013-11-10 08:21:00,
2013-11-10 02:42:00,53.0,50.0,30.24,NNW,340,1.0,3.0,91,0.00,,,0.11,,2013-11-10 08:42:00,
2013-11-10 02:52:00,53.0,50.0,30.25,NNE,17,3.0,5.0,91,0.00,,,0.11,,2013-11-10 08:52:00,
2013-11-10 03:12:00,52.0,49.0,30.25,NNE,12,4.0,6.0,90,0.00,,,0.11,,2013-11-10 09:12:00,
2013-11-10 03:21:00,53.0,50.0,30.25,NE,36,2.0,5.0,88,0.00,,,0.11,,2013-11-10 09:21:00,
2013-11-10 03:42:00,53.0,50.0,30.25,NNE,17,4.0,6.0,88,0.00,,,0.11,,2013-11-10 09:42:00,
2013-11-10 03:53:00,52.0,49.0,30.26,North,355,1.0,5.0,88,0.00,,,0.11,,2013-11-10 09:53:00,
2013-11-10 04:13:00,52.0,49.0,30.26,North,355,4.0,5.0,88,0.00,,,0.11,,2013-11-10 10:13:00,
2013-11-10 04:23:00,52.0,49.0,30.26,North,360,4.0,6.0,89,0.00,,,0.11,,2013-11-10 10:23:00,
2013-11-10 04:42:00,52.0,49.0,30.27,North,9,2.0,5.0,90,0.00,,,0.11,,2013-11-10 10:42:00,
2013-11-10 04:53:00,52.0,49.0,30.27,North,9,2.0,5.0,90,0.00,,,0.11,,2013-11-10 10:53:00,
2013-11-10 05:12:00,51.0,48.0,30.27,North,9,2.0,4.0,90,0.00,,,0.11,,2013-11-10 11:12:00,
2013-11-10 05:22:00,50.0,47.0,30.27,North,9,3.0,4.0,90,0.00,,,0.11,,2013-11-10 11:22:00,
2013-11-10 05:43:00,50.0,47.0,30.28,North,9,1.0,3.0,90,0.00,,,0.11,,2013-11-10 11:43:00,
2013-11-10 05:52:00,50.0,47.0,30.28,NNE,21,2.0,4.0,90,0.00,,,0.11,,2013-11-10 11:52:00,
2013-11-10 06:12:00,50.0,47.0,30.28,NNE,22,2.0,3.0,90,0.00,,,0.11,,2013-11-10 12:12:00,
2013-11-10 06:21:00,50.0,47.0,30.28,NNE,22,0.0,1.0,90,0.00,,,0.11,,2013-11-10 12:21:00,
2013-11-10 06:42:00,50.0,47.0,30.28,NNE,22,1.0,2.0,90,0.00,,,0.11,,2013-11-10 12:42:00,
2013-11-10 06:52:00,50.0,47.0,30.29,NNE,22,0.0,2.0,91,0.00,,,0.11,,2013-11-10 12:52:00,
2013-11-10 07:11:00,50.0,47.0,30.29,NNE,22,0.0,1.0,91,0.00,,,0.11,,2013-11-10 13:11:00,
2013-11-10 07:21:00,50.0,48.0,30.29,NNE,22,1.0,3.0,92,0.00,,,0.11,,2013-11-10 13:21:00,
2013-11-10 07:41:00,50.0,48.0,30.30,NNE,22,0.0,1.0,93,0.00,,,0.11,,2013-11-10 13:41:00,
2013-11-10 07:52:00,50.0,48.0,30.31,NNE,22,0.0,0.0,92,0.00,,,0.11,,2013-11-10 13:52:00,
2013-11-10 08:11:00,51.0,49.0,30.31,North,5,2.0,4.0,92,0.00,,,0.11,,2013-11-10 14:11:00,
2013-11-10 08:21:00,53.0,50.0,30.32,NNE,17,2.0,5.0,90,0.00,,,0.11,,2013-11-10 14:21:00,
2013-11-10 08:42:00,53.0,49.0,30.32,NNE,28,1.0,5.0,86,0.00,,,0.11,,2013-11-10 14:42:00,
2013-11-10 08:52:00,54.0,50.0,30.32,NNE,28,2.0,4.0,87,0.00,,,0.11,,2013-11-10 14:52:00,
2013-11-10 09:11:00,55.0,51.0,30.32,NNE,19,2.0,4.0,87,0.00,,,0.11,,2013-11-10 15:11:00,
2013-11-10 09:22:00,56.0,51.0,30.32,NNE,26,4.0,6.0,84,0.00,,,0.11,,2013-11-10 15:22:00,
2013-11-10 09:43:00,57.0,51.0,30.32,NE,34,4.0,7.0,81,0.00,,,0.11,,2013-11-10 15:43:00,
2013-11-10 09:53:00,58.0,50.0,30.32,NE,49,5.0,9.0,75,0.00,,,0.11,,2013-11-10 15:53:00,
2013-11-10 10:12:00,59.0,50.0,30.32,NNE,24,7.0,9.0,72,0.00,,,0.11,,2013-11-10 16:12:00,
2013-11-10 10:23:00,60.0,49.0,30.32,NNE,25,5.0,9.0,68,0.00,,,0.11,,2013-11-10 16:23:00,
2013-11-10 10:42:00,60.0,49.0,30.31,NNE,18,5.0,7.0,67,0.00,,,0.11,,2013-11-10 16:42:00,
2013-11-10 10:53:00,61.0,50.0,30.31,NE,35,4.0,9.0,68,0.00,,,0.11,,2013-11-10 16:53:00,
2013-11-10 11:12:00,61.0,50.0,30.31,North,9,4.0,8.0,66,0.00,,,0.11,,2013-11-10 17:12:00,
2013-11-10 11:23:00,62.0,50.0,30.30,North,355,3.0,8.0,64,0.00,,,0.11,,2013-11-10 17:23:00,
2013-11-10 11:43:00,63.0,48.0,30.30,North,5,4.0,7.0,59,0.00,,,0.11,,2013-11-10 17:43:00,
2013-11-10 11:52:00,63.0,48.0,30.29,NNE,33,5.0,7.0,58,0.00,,,0.11,,2013-11-10 17:52:00,
2013-11-10 12:12:00,63.0,48.0,30.29,North,355,5.0,7.0,59,0.00,,,0.11,,2013-11-10 18:12:00,
2013-11-10 12:24:00,63.0,48.0,30.28,North,360,4.0,10.0,59,0.00,,,0.11,,2013-11-10 18:24:00,
2013-11-10 12:42:00,63.0,49.0,30.27,North,349,6.0,10.0,60,0.00,,,0.11,,2013-11-10 18:42:00,
2013-11-10 12:52:00,63.0,46.0,30.27,North,9,5.0,11.0,53,0.00,,,0.11,,2013-11-10 18:52:00,
2013-11-10 13:11:00,63.0,47.0,30.26,NNW,346,4.0,8.0,55,0.00,,,0.11,,2013-11-10 19:11:00,
2013-11-10 13:22:00,64.0,47.0,30.26,NE,44,5.0,8.0,55,0.00,,,0.11,,2013-11-10 19:22:00,
2013-11-10 13:42:00,64.0,49.0,30.26,NNE,13,3.0,7.0,58,0.00,,,0.11,,2013-11-10 19:42:00,
2013-11-10 13:52:00,65.0,49.0,30.25,North,5,5.0,10.0,57,0.00,,,0.11,,2013-11-10 19:52:00,
2013-11-10 14:11:00,66.0,49.0,30.25,NNE,22,5.0,13.0,55,0.00,,,0.11,,2013-11-10 20:11:00,
2013-11-10 14:22:00,66.0,48.0,30.24,North,5,6.0,11.0,53,0.00,,,0.11,,2013-11-10 20:22:00,
2013-11-10 14:42:00,66.0,50.0,30.24,NE,37,6.0,11.0,57,0.00,,,0.11,,2013-11-10 20:42:00,
2013-11-10 14:52:00,66.0,48.0,30.24,NNE,30,7.0,10.0,53,0.00,,,0.11,,2013-11-10 20:52:00,
2013-11-10 15:11:00,66.0,48.0,30.24,NNE,30,6.0,10.0,53,0.00,,,0.11,,2013-11-10 21:11:00,
2013-11-10 15:22:00,66.0,49.0,30.24,NNE,19,7.0,11.0,54,0.00,,,0.11,,2013-11-10 21:22:00,
2013-11-10 15:43:00,66.0,48.0,30.24,NE,42,6.0,10.0,52,0.00,,,0.11,,2013-11-10 21:43:00,
2013-11-10 15:55:00,66.0,49.0,30.24,North,5,7.0,12.0,54,0.00,,,0.11,,2013-11-10 21:55:00,
2013-11-10 16:13:00,65.0,49.0,30.24,NNE,19,3.0,8.0,56,0.00,,,0.10,,2013-11-10 22:13:00,
2013-11-10 16:23:00,65.0,50.0,30.24,NNE,13,4.0,6.0,58,0.00,,,0.10,,2013-11-10 22:23:00,
2013-11-10 16:43:00,65.0,51.0,30.25,NE,34,5.0,9.0,60,0.00,,,0.10,,2013-11-10 22:43:00,
2013-11-10 16:54:00,65.0,51.0,30.25,NNE,32,5.0,7.0,60,0.00,,,0.10,,2013-11-10 22:54:00,
2013-11-10 17:12:00,64.0,51.0,30.24,NE,45,4.0,6.0,62,0.00,,,0.09,,2013-11-10 23:12:00,
2013-11-10 17:22:00,63.0,51.0,30.24,NE,39,3.0,5.0,65,0.00,,,0.09,,2013-11-10 23:22:00,
2013-11-10 17:43:00,62.0,51.0,30.24,NE,43,2.0,3.0,67,0.00,,,0.09,,2013-11-10 23:43:00,
2013-11-10 17:53:00,61.0,51.0,30.24,NE,35,1.0,4.0,70,0.00,,,0.09,,2013-11-10 23:53:00,
2013-11-10 18:11:00,61.0,52.0,30.25,NE,35,0.0,2.0,72,0.00,,,0.01,,2013-11-11 00:11:00,
2013-11-10 18:22:00,60.0,52.0,30.25,NE,35,2.0,3.0,74,0.00,,,0.01,,2013-11-11 00:22:00,
2013-11-10 18:42:00,59.0,50.0,30.25,NE,35,1.0,3.0,73,0.00,,,0.01,,2013-11-11 00:42:00,
2013-11-10 18:52:00,59.0,51.0,30.25,NE,35,0.0,1.0,74,0.00,,,0.01,,2013-11-11 00:52:00,
2013-11-10 19:11:00,58.0,51.0,30.25,NE,35,0.0,0.0,77,0.00,,,0.00,,2013-11-11 01:11:00,
2013-11-10 19:22:00,58.0,52.0,30.25,NE,35,0.0,0.0,81,0.00,,,0.00,,2013-11-11 01:22:00,
2013-11-10 19:42:00,57.0,51.0,30.25,NE,35,0.0,0.0,80,0.00,,,0.00,,2013-11-11 01:42:00,
2013-11-10 19:52:00,56.0,50.0,30.25,NE,35,0.0,0.0,80,0.00,,,0.00,,2013-11-11 01:52:00,
2013-11-10 20:11:00,56.0,51.0,30.25,NE,35,0.0,0.0,82,0.00,,,0.00,,2013-11-11 02:11:00,
2013-11-10 20:21:00,55.0,50.0,30.25,NE,35,0.0,1.0,83,0.00,,,0.00,,2013-11-11 02:21:00,
2013-11-10 20:42:00,54.0,49.0,30.26,NE,35,1.0,2.0,84,0.00,,,0.00,,2013-11-11 02:42:00,
2013-11-10 20:52:00,54.0,50.0,30.26,NE,35,0.0,0.0,86,0.00,,,0.00,,2013-11-11 02:52:00,
2013-11-10 21:22:00,53.0,49.0,30.26,NE,35,0.0,0.0,86,0.00,,,0.00,,2013-11-11 03:22:00,
2013-11-10 21:43:00,53.0,49.0,30.26,NNE,16,3.0,4.0,86,0.00,,,0.00,,2013-11-11 03:43:00,
2013-11-10 21:55:00,53.0,49.0,30.26,North,5,1.0,4.0,86,0.00,,,0.00,,2013-11-11 03:55:00,
2013-11-10 22:14:00,54.0,50.0,30.26,North,5,1.0,3.0,87,0.00,,,0.00,,2013-11-11 04:14:00,
2013-11-10 22:24:00,54.0,50.0,30.26,North,5,0.0,3.0,87,0.00,,,0.00,,2013-11-11 04:24:00,
2013-11-10 22:43:00,54.0,50.0,30.26,North,5,0.0,1.0,86,0.00,,,0.00,,2013-11-11 04:43:00,
2013-11-10 22:53:00,53.0,49.0,30.26,North,5,0.0,0.0,86,0.00,,,0.00,,2013-11-11 04:53:00,
2013-11-10 23:13:00,53.0,50.0,30.26,North,5,1.0,2.0,88,0.00,,,0.00,,2013-11-11 05:13:00,
2013-11-10 23:23:00,53.0,50.0,30.26,North,5,0.0,1.0,88,0.00,,,0.00,,2013-11-11 05:23:00,
2013-11-10 23:43:00,52.0,49.0,30.25,North,5,0.0,1.0,88,0.00,,,0.00,,2013-11-11 05:43:00,
2013-11-10 23:54:00,52.0,49.0,30.25,North,5,1.0,2.0,90,0.00,,,0.00,,2013-11-11 05:54:00,